createdAt,value
2022-11-05T00:01:13.590Z,5.00
2022-11-05T00:03:59.830Z,5.28
2022-11-05T00:06:46.014Z,5.30
2022-11-05T00:09:32.891Z,5.80
2022-11-05T00:12:31.869Z,3.63
2022-11-05T00:15:18.359Z,4.72
2022-11-05T00:17:46.270Z,4.35
2022-11-05T00:20:14.291Z,3.40
2022-11-05T00:23:00.705Z,3.70
2022-11-05T00:25:30.359Z,3.65
2022-11-05T00:28:02.210Z,3.70
2022-11-05T00:30:30.496Z,3.20
2022-11-05T00:33:02.777Z,3.10
2022-11-05T00:35:30.664Z,3.55
2022-11-05T00:37:58.484Z,2.75
2022-11-05T00:40:26.531Z,3.00
2022-11-05T00:43:13.262Z,2.65
2022-11-05T00:45:41.299Z,2.65
2022-11-05T00:48:27.584Z,2.38
2022-11-05T00:50:55.470Z,1.83
2022-11-05T00:53:23.854Z,1.80
2022-11-05T00:55:51.783Z,1.27
2022-11-05T00:58:21.250Z,1.20
2022-11-05T01:00:51.086Z,1.42
2022-11-05T01:03:22.075Z,1.33
2022-11-05T01:05:52.763Z,1.33
2022-11-05T01:08:22.341Z,1.17
2022-11-05T01:10:55.768Z,0.75
2022-11-05T01:13:28.662Z,0.50
2022-11-05T01:15:57.661Z,0.60
2022-11-05T01:18:25.774Z,0.90
2022-11-05T01:20:53.757Z,0.70
2022-11-05T01:23:22.350Z,0.50
2022-11-05T01:25:50.429Z,0.70
2022-11-05T01:28:18.540Z,0.45
2022-11-05T01:30:46.793Z,0.60
2022-11-05T01:33:14.840Z,0.50
2022-11-05T01:35:42.903Z,0.70
2022-11-05T01:38:10.820Z,0.80
2022-11-05T01:40:43.040Z,0.68
2022-11-05T01:43:19.499Z,0.40
2022-11-05T01:45:51.370Z,0.60
2022-11-05T01:48:30.705Z,0.88
2022-11-05T01:51:03.318Z,0.50
2022-11-05T01:53:48.663Z,0.47
2022-11-05T01:56:19.034Z,0.50
2022-11-05T01:58:52.357Z,0.50
2022-11-05T02:01:20.360Z,0.80
2022-11-05T02:03:50.922Z,0.60
2022-11-05T02:06:19.805Z,0.60
2022-11-05T02:09:02.936Z,1.83
2022-11-05T02:11:31.078Z,0.93
2022-11-05T02:13:59.643Z,0.70
2022-11-05T02:16:36.882Z,0.50
2022-11-05T02:19:32.175Z,0.43
2022-11-05T02:22:29.120Z,0.65
2022-11-05T02:24:57.104Z,0.30
2022-11-05T02:27:46.465Z,0.70
2022-11-05T02:30:32.140Z,0.30
2022-11-05T02:33:36.366Z,0.30
2022-11-05T02:36:19.159Z,0.32
2022-11-05T02:39:07.803Z,0.17
2022-11-05T02:42:09.911Z,0.20
2022-11-05T02:45:05.006Z,0.30
2022-11-05T02:48:01.563Z,0.40
2022-11-05T02:50:29.503Z,0.30
2022-11-05T02:53:03.514Z,0.40
2022-11-05T02:55:40.011Z,0.28
2022-11-05T02:58:08.227Z,0.30
2022-11-05T03:00:40.138Z,0.30
2022-11-05T03:03:26.277Z,0.30
2022-11-05T03:06:24.727Z,0.30
2022-11-05T03:09:10.488Z,0.30
2022-11-05T03:11:58.486Z,0.50
2022-11-05T03:14:37.291Z,0.20
2022-11-05T03:17:10.901Z,0.30
2022-11-05T03:20:26.068Z,0.40
2022-11-05T03:23:05.327Z,0.47
2022-11-05T03:25:39.457Z,0.13
2022-11-05T03:28:10.199Z,0.10
2022-11-05T03:30:41.155Z,0.10
2022-11-05T03:33:17.962Z,0.20
2022-11-05T03:35:50.762Z,0.40
2022-11-05T03:38:27.609Z,0.20
2022-11-05T03:40:58.862Z,0.20
2022-11-05T03:43:32.355Z,0.30
2022-11-05T03:46:06.717Z,0.20
2022-11-05T03:48:41.351Z,0.15
2022-11-05T03:51:20.817Z,0.20
2022-11-05T03:53:53.026Z,0.20
2022-11-05T03:56:34.429Z,0.20
2022-11-05T03:59:05.111Z,0.40
2022-11-05T04:01:33.780Z,0.28
2022-11-05T04:04:01.900Z,0.10
2022-11-05T04:06:48.414Z,0.20
2022-11-05T04:09:34.504Z,0.15
2022-11-05T04:12:20.631Z,0.10
2022-11-05T04:14:48.417Z,0.10
2022-11-05T04:17:16.219Z,0.10
2022-11-05T04:20:03.982Z,0.08
2022-11-05T04:22:52.923Z,0.10
2022-11-05T04:25:21.954Z,0.20
2022-11-05T04:27:50.358Z,0.20
2022-11-05T04:30:19.162Z,0.20
2022-11-05T04:32:55.867Z,0.20
2022-11-05T04:35:24.508Z,0.20
2022-11-05T04:37:52.503Z,0.35
2022-11-05T04:40:20.617Z,0.17
2022-11-05T04:42:48.835Z,0.10
2022-11-05T04:45:17.123Z,0.17
2022-11-05T04:47:45.149Z,0.10
2022-11-05T04:50:13.535Z,0.20
2022-11-05T04:52:41.556Z,0.10
2022-11-05T04:55:09.619Z,0.30
2022-11-05T04:57:37.979Z,0.10
2022-11-05T05:00:07.648Z,0.10
2022-11-05T05:02:38.738Z,0.30
2022-11-05T05:05:06.994Z,0.20
2022-11-05T05:07:35.537Z,0.47
2022-11-05T05:10:06.115Z,0.40
2022-11-05T05:12:34.916Z,0.80
2022-11-05T05:15:02.735Z,0.43
2022-11-05T05:17:30.773Z,0.50
2022-11-05T05:20:16.977Z,1.00
2022-11-05T05:22:44.600Z,0.30
2022-11-05T05:25:12.629Z,0.43
2022-11-05T05:27:40.750Z,0.43
2022-11-05T05:30:09.555Z,0.40
2022-11-05T05:32:37.671Z,0.40
2022-11-05T05:35:06.421Z,0.50
2022-11-05T05:37:34.264Z,0.65
2022-11-05T05:40:02.180Z,0.30
2022-11-05T05:42:30.175Z,0.52
2022-11-05T05:44:58.099Z,0.40
2022-11-05T05:47:26.043Z,0.50
2022-11-05T05:49:54.061Z,0.80
2022-11-05T05:52:22.087Z,0.40
2022-11-05T05:54:49.825Z,0.45
2022-11-05T05:57:17.764Z,0.50
2022-11-05T05:59:46.069Z,0.47
2022-11-05T06:02:14.265Z,0.40
2022-11-05T06:04:42.269Z,0.60
2022-11-05T06:07:09.949Z,0.90
2022-11-05T06:09:38.094Z,0.70
2022-11-05T06:12:06.088Z,0.60
2022-11-05T06:14:33.869Z,0.60
2022-11-05T06:17:01.940Z,0.60
2022-11-05T06:19:29.851Z,0.80
2022-11-05T06:21:57.627Z,1.00
2022-11-05T06:24:25.681Z,0.90
2022-11-05T06:26:53.517Z,1.05
2022-11-05T06:29:21.647Z,1.17
2022-11-05T06:31:49.381Z,0.98
2022-11-05T06:34:16.939Z,1.42
2022-11-05T06:36:44.754Z,1.10
2022-11-05T06:39:13.366Z,1.10
2022-11-05T06:44:29.583Z,2.17
2022-11-05T06:46:57.877Z,0.98
2022-11-05T06:49:25.965Z,1.75
2022-11-05T06:51:54.022Z,2.50
2022-11-05T06:54:22.026Z,4.05
2022-11-05T06:56:50.343Z,3.75
2022-11-05T06:59:18.103Z,1.75
2022-11-05T07:01:46.153Z,1.55
2022-11-05T07:04:17.084Z,1.40
2022-11-05T07:06:45.002Z,1.45
2022-11-05T07:09:13.150Z,1.20
2022-11-05T07:11:41.054Z,1.25
2022-11-05T07:14:08.869Z,0.98
2022-11-05T07:16:36.712Z,1.17
2022-11-05T07:19:04.913Z,1.30
2022-11-05T07:21:35.463Z,3.20
2022-11-05T07:24:03.303Z,4.05
2022-11-05T07:26:34.542Z,4.00
2022-11-05T07:29:02.707Z,2.50
2022-11-05T07:31:30.928Z,2.97
2022-11-05T07:33:59.377Z,1.50
2022-11-05T07:36:27.553Z,1.48
2022-11-05T07:39:00.180Z,1.80
2022-11-05T07:41:29.653Z,1.20
2022-11-05T07:43:57.428Z,1.02
2022-11-05T07:46:25.478Z,1.00
2022-11-05T07:48:53.410Z,1.20
2022-11-05T07:51:21.592Z,0.93
2022-11-05T07:53:49.940Z,1.00
2022-11-05T07:56:17.939Z,0.82
2022-11-05T07:58:46.066Z,2.33
2022-11-05T08:01:14.274Z,1.35
2022-11-05T08:03:42.387Z,1.10
2022-11-05T08:06:10.703Z,1.10
2022-11-05T08:08:38.769Z,1.10
2022-11-05T08:11:11.050Z,5.28
2022-11-05T08:13:39.331Z,2.97
2022-11-05T08:16:08.310Z,2.65
2022-11-05T08:18:36.190Z,2.95
2022-11-05T08:21:05.929Z,1.42
2022-11-05T08:23:33.963Z,1.30
2022-11-05T08:26:04.155Z,1.10
2022-11-05T08:28:32.433Z,1.10
2022-11-05T08:31:00.164Z,0.80
2022-11-05T08:33:29.802Z,1.45
2022-11-05T08:36:02.167Z,1.10
2022-11-05T08:38:30.387Z,1.02
2022-11-05T08:40:58.973Z,0.88
2022-11-05T08:43:27.079Z,0.80
2022-11-05T08:45:55.375Z,0.80
2022-11-05T08:48:23.381Z,0.90
2022-11-05T08:50:51.459Z,0.85
2022-11-05T08:53:19.610Z,0.90
2022-11-05T08:55:50.069Z,1.10
2022-11-05T08:58:18.238Z,0.90
2022-11-05T09:00:49.236Z,0.95
2022-11-05T09:03:18.166Z,0.90
2022-11-05T09:05:46.704Z,1.10
2022-11-05T09:08:17.526Z,1.48
2022-11-05T09:10:46.780Z,1.77
2022-11-05T09:13:18.823Z,2.75
2022-11-05T09:15:49.311Z,1.85
2022-11-05T09:18:18.688Z,1.95
2022-11-05T09:20:47.212Z,2.10
2022-11-05T09:23:16.137Z,1.73
2022-11-05T09:25:44.618Z,1.60
2022-11-05T09:28:16.815Z,1.80
2022-11-05T09:30:48.130Z,2.15
2022-11-05T09:33:24.447Z,1.00
2022-11-05T09:35:53.500Z,0.98
2022-11-05T09:38:22.100Z,0.68
2022-11-05T09:41:03.304Z,0.93
2022-11-05T09:43:40.787Z,1.02
2022-11-05T09:46:17.633Z,1.25
2022-11-05T09:48:49.805Z,1.00
2022-11-05T09:51:23.750Z,0.80
2022-11-05T09:53:53.986Z,1.10
2022-11-05T09:56:28.063Z,4.20
2022-11-05T09:59:01.029Z,4.45
2022-11-05T10:01:35.869Z,1.77
2022-11-05T10:04:13.299Z,1.35
2022-11-05T10:06:48.684Z,1.83
2022-11-05T10:09:36.174Z,1.60
2022-11-05T10:12:14.927Z,1.38
2022-11-05T10:15:04.310Z,1.85
2022-11-05T10:17:39.231Z,1.50
2022-11-05T10:20:32.796Z,1.70
2022-11-05T10:23:13.911Z,1.60
2022-11-05T10:25:46.773Z,1.10
2022-11-05T10:28:19.238Z,0.93
2022-11-05T10:30:50.542Z,1.00
2022-11-05T10:33:35.800Z,1.05
2022-11-05T10:36:07.308Z,0.73
2022-11-05T10:38:35.266Z,0.70
2022-11-05T10:41:21.602Z,0.80
2022-11-05T10:43:58.606Z,0.70
2022-11-05T10:46:41.230Z,0.90
2022-11-05T10:49:27.393Z,0.50
2022-11-05T10:51:59.041Z,0.60
2022-11-05T10:54:33.685Z,0.95
2022-11-05T10:57:39.190Z,0.60
2022-11-05T11:00:16.321Z,1.02
2022-11-05T11:02:59.514Z,0.73
2022-11-05T11:05:36.827Z,0.73
2022-11-05T11:08:13.506Z,0.60
2022-11-05T11:10:48.891Z,0.55
2022-11-05T11:13:28.886Z,0.43
2022-11-05T11:16:19.864Z,0.50
2022-11-05T11:18:56.506Z,0.50
2022-11-05T11:21:27.471Z,0.47
2022-11-05T11:24:09.461Z,0.70
2022-11-05T11:26:40.623Z,0.75
2022-11-05T11:29:19.840Z,0.80
2022-11-05T11:31:47.708Z,1.10
2022-11-05T11:34:31.598Z,0.70
2022-11-05T11:39:35.085Z,0.20
2022-11-05T11:42:11.661Z,0.40
2022-11-05T11:44:46.448Z,0.80
2022-11-05T11:47:17.413Z,0.60
2022-11-05T11:49:47.392Z,0.73
2022-11-05T11:52:35.965Z,0.68
2022-11-05T11:55:09.492Z,0.70
2022-11-05T12:00:43.050Z,0.60
2022-11-05T12:03:23.095Z,0.65
2022-11-05T12:06:03.797Z,0.80
2022-11-05T12:08:47.652Z,0.40
2022-11-05T12:11:34.249Z,0.50
2022-11-05T12:14:06.570Z,0.40
2022-11-05T12:16:49.797Z,0.38
2022-11-05T12:19:35.606Z,0.30
2022-11-05T12:22:18.341Z,0.30
2022-11-05T12:25:05.946Z,0.68
2022-11-05T12:27:47.331Z,0.90
2022-11-05T12:30:20.205Z,0.90
2022-11-05T12:32:55.069Z,1.23
2022-11-05T12:35:57.898Z,0.80
2022-11-05T12:38:53.245Z,1.85
2022-11-05T12:41:29.790Z,1.90
2022-11-05T12:44:10.422Z,1.30
2022-11-05T12:46:38.302Z,1.40
2022-11-05T12:49:36.467Z,1.33
2022-11-05T12:52:19.055Z,3.47
2022-11-05T12:55:05.221Z,3.13
2022-11-05T12:57:36.485Z,1.58
2022-11-05T13:00:16.314Z,1.20
2022-11-05T13:02:49.735Z,1.77
2022-11-05T13:05:25.113Z,2.17
2022-11-05T13:08:01.239Z,1.80
2022-11-05T13:10:35.386Z,1.35
2022-11-05T13:13:32.607Z,1.23
2022-11-05T13:16:19.969Z,1.10
2022-11-05T13:18:52.405Z,1.50
2022-11-05T13:21:24.291Z,1.40
2022-11-05T13:23:57.476Z,1.60
2022-11-05T13:26:31.527Z,1.00
2022-11-05T13:29:41.249Z,1.00
2022-11-05T13:32:35.315Z,1.30
2022-11-05T13:35:05.519Z,0.68
2022-11-05T13:37:59.436Z,1.27
2022-11-05T13:40:50.265Z,1.20
2022-11-05T13:43:37.053Z,1.10
2022-11-05T13:46:33.889Z,0.80
2022-11-05T13:49:25.635Z,0.80
2022-11-05T13:52:36.693Z,1.08
2022-11-05T13:55:41.830Z,0.55
2022-11-05T13:58:26.327Z,0.68
2022-11-05T14:01:06.054Z,0.70
2022-11-05T14:03:33.923Z,0.65
2022-11-05T14:06:07.483Z,0.60
2022-11-05T14:11:33.352Z,0.60
2022-11-05T14:14:20.018Z,0.82
2022-11-05T14:17:14.122Z,0.65
2022-11-05T14:20:05.850Z,0.75
2022-11-05T14:22:33.722Z,1.15
2022-11-05T14:25:22.467Z,1.50
2022-11-05T14:27:52.348Z,1.23
2022-11-05T14:30:46.370Z,1.58
2022-11-05T14:33:24.645Z,1.23
2022-11-05T14:35:54.080Z,1.90
2022-11-05T14:38:26.140Z,2.10
2022-11-05T14:41:02.508Z,2.42
2022-11-05T14:43:34.026Z,2.83
2022-11-05T14:46:09.194Z,3.05
2022-11-05T14:48:42.217Z,3.75
2022-11-05T14:51:35.871Z,3.63
2022-11-05T14:54:21.766Z,2.72
2022-11-05T14:56:57.140Z,2.83
2022-11-05T14:59:24.832Z,3.05
2022-11-05T15:01:58.991Z,3.05
2022-11-05T15:04:27.844Z,2.88
2022-11-05T15:07:04.502Z,2.40
2022-11-05T15:09:53.569Z,2.65
2022-11-05T15:12:39.737Z,3.33
2022-11-05T15:15:22.327Z,3.47
2022-11-05T15:18:26.564Z,4.07
2022-11-05T15:20:57.730Z,4.50
2022-11-05T15:23:30.205Z,4.45
2022-11-05T15:26:31.659Z,4.05
2022-11-05T15:29:00.812Z,5.22
2022-11-05T15:31:35.511Z,4.90
2022-11-05T15:34:15.527Z,5.93
2022-11-05T15:37:11.797Z,5.55
2022-11-05T15:39:45.263Z,5.97
2022-11-05T15:42:14.289Z,4.82
2022-11-05T15:44:47.823Z,5.90
2022-11-05T15:47:24.194Z,5.70
2022-11-05T15:49:57.114Z,6.38
2022-11-05T15:52:31.757Z,5.82
2022-11-05T15:55:14.705Z,5.95
2022-11-05T15:57:50.429Z,6.37
2022-11-05T16:00:24.645Z,5.43
2022-11-05T16:03:15.307Z,5.75
2022-11-05T16:05:46.484Z,6.00
2022-11-05T16:08:28.653Z,6.45
2022-11-05T16:11:00.770Z,5.60
2022-11-05T16:13:38.540Z,6.22
2022-11-05T16:16:27.759Z,5.15
2022-11-05T16:18:55.405Z,5.70
2022-11-05T16:21:23.731Z,5.25
2022-11-05T16:23:57.773Z,5.30
2022-11-05T16:27:01.720Z,6.75
2022-11-05T16:29:33.671Z,5.90
2022-11-05T16:32:04.784Z,6.57
2022-11-05T16:34:45.575Z,6.85
2022-11-05T16:37:17.169Z,7.40
2022-11-05T16:39:45.102Z,6.78
2022-11-05T16:42:24.684Z,7.50
2022-11-05T16:44:54.960Z,6.97
2022-11-05T16:47:23.092Z,5.40
2022-11-05T16:49:51.262Z,6.85
2022-11-05T16:52:22.415Z,6.63
2022-11-05T16:54:50.363Z,5.15
2022-11-05T16:57:29.463Z,5.40
2022-11-05T17:00:04.606Z,4.38
2022-11-05T17:02:33.439Z,6.18
2022-11-05T17:05:01.808Z,5.55
2022-11-05T17:07:29.781Z,4.55
2022-11-05T17:09:58.033Z,6.82
2022-11-05T17:12:26.129Z,8.18
2022-11-05T17:14:54.266Z,5.88
2022-11-05T17:17:22.184Z,4.55
2022-11-05T17:19:50.471Z,5.05
2022-11-05T17:22:18.252Z,5.32
2022-11-05T17:24:46.162Z,4.72
2022-11-05T17:27:14.362Z,4.55
2022-11-05T17:29:42.337Z,4.57
2022-11-05T17:32:10.379Z,5.55
2022-11-05T17:34:38.170Z,4.57
2022-11-05T17:37:05.821Z,5.40
2022-11-05T17:39:33.884Z,5.50
2022-11-05T17:42:01.652Z,5.10
2022-11-05T17:44:29.829Z,4.90
2022-11-05T17:46:57.785Z,4.80
2022-11-05T17:49:25.611Z,4.85
2022-11-05T17:51:53.726Z,4.53
2022-11-05T17:54:21.892Z,5.38
2022-11-05T17:56:52.807Z,4.85
2022-11-05T17:59:20.724Z,4.97
2022-11-05T18:01:48.964Z,5.28
2022-11-05T18:04:16.870Z,6.00
2022-11-05T18:06:44.810Z,4.85
2022-11-05T18:09:13.496Z,6.30
2022-11-05T18:11:41.974Z,5.57
2022-11-05T18:14:10.289Z,5.60
2022-11-05T18:16:38.568Z,5.72
2022-11-05T18:19:06.632Z,7.00
2022-11-05T18:21:34.584Z,6.60
2022-11-05T18:24:04.162Z,6.60
2022-11-05T18:26:32.473Z,7.95
2022-11-05T18:29:05.470Z,8.35
2022-11-05T18:31:33.540Z,8.82
2022-11-05T18:34:01.740Z,6.97
2022-11-05T18:36:31.578Z,7.22
2022-11-05T18:39:01.718Z,8.77
2022-11-05T18:41:30.209Z,8.32
2022-11-05T18:44:01.739Z,7.97
2022-11-05T18:46:56.431Z,14.32
2022-11-05T18:49:18.461Z,10.75
2022-11-05T18:51:46.204Z,9.35
2022-11-05T18:54:14.654Z,7.53
2022-11-05T18:56:45.610Z,8.60
2022-11-05T18:59:36.018Z,7.53
2022-11-05T19:02:04.209Z,7.88
2022-11-05T19:04:32.198Z,7.03
2022-11-05T19:07:04.406Z,6.50
2022-11-05T19:09:37.503Z,6.43
2022-11-05T19:12:07.171Z,7.85
2022-11-05T19:14:35.724Z,7.72
2022-11-05T19:17:04.435Z,8.23
2022-11-05T19:19:32.510Z,7.72
2022-11-05T19:22:00.174Z,6.70
2022-11-05T19:24:28.138Z,6.90
2022-11-05T19:26:56.089Z,7.40
2022-11-05T19:29:23.918Z,7.78
2022-11-05T19:31:51.888Z,9.02
2022-11-05T19:34:20.636Z,8.57
2022-11-05T19:36:48.513Z,8.60
2022-11-05T19:39:16.354Z,11.68
2022-11-05T19:41:44.132Z,8.73
2022-11-05T19:44:11.797Z,8.20
2022-11-05T19:46:39.542Z,7.95
2022-11-05T19:49:07.294Z,8.02
2022-11-05T19:51:35.194Z,7.57
2022-11-05T19:54:04.724Z,6.90
2022-11-05T19:56:34.381Z,6.82
2022-11-05T19:59:06.790Z,7.20
2022-11-05T20:01:35.574Z,6.57
2022-11-05T20:04:04.820Z,6.43
2022-11-05T20:06:37.909Z,9.23
2022-11-05T20:09:24.242Z,9.07
2022-11-05T20:11:56.620Z,9.40
2022-11-05T20:14:25.393Z,8.82
2022-11-05T20:16:53.993Z,8.05
2022-11-05T20:19:22.944Z,6.80
2022-11-05T20:21:51.087Z,6.72
2022-11-05T20:24:24.791Z,6.32
2022-11-05T20:26:55.153Z,5.70
2022-11-05T20:29:23.851Z,6.60
2022-11-05T20:31:53.609Z,5.30
2022-11-05T20:34:21.527Z,5.40
2022-11-05T20:36:49.256Z,7.10
2022-11-05T20:39:17.878Z,7.25
2022-11-05T20:41:45.764Z,7.53
2022-11-05T20:44:13.764Z,5.50
2022-11-05T20:46:42.088Z,7.15
2022-11-05T20:49:10.093Z,6.20
2022-11-05T20:51:38.181Z,6.30
2022-11-05T20:54:06.043Z,6.65
2022-11-05T20:56:37.208Z,6.00
2022-11-05T20:59:05.836Z,6.03
2022-11-05T21:01:35.001Z,8.82
2022-11-05T21:04:04.306Z,7.18
2022-11-05T21:06:33.779Z,7.70
2022-11-05T21:09:02.462Z,6.45
2022-11-05T21:11:50.260Z,6.95
2022-11-05T21:14:18.276Z,7.32
2022-11-05T21:16:46.120Z,7.72
2022-11-05T21:19:15.221Z,7.63
2022-11-05T21:21:43.053Z,6.97
2022-11-05T21:24:11.074Z,7.65
2022-11-05T21:26:39.647Z,8.82
2022-11-05T21:29:07.858Z,7.93
2022-11-05T21:31:37.463Z,7.80
2022-11-05T21:34:05.583Z,8.13
2022-11-05T21:36:34.396Z,8.35
2022-11-05T21:39:02.616Z,8.73
2022-11-05T21:41:30.686Z,8.70
2022-11-05T21:43:58.376Z,8.70
2022-11-05T21:46:26.522Z,9.25
2022-11-05T21:48:54.296Z,9.55
2022-11-05T21:51:40.964Z,9.05
2022-11-05T21:54:31.601Z,8.93
2022-11-05T21:57:17.899Z,8.63
2022-11-05T21:59:48.517Z,8.35
2022-11-05T22:02:22.257Z,8.55
2022-11-05T22:04:53.400Z,7.65
2022-11-05T22:07:24.164Z,8.18
2022-11-05T22:09:52.422Z,7.28
2022-11-05T22:12:20.784Z,6.25
2022-11-05T22:14:48.787Z,6.80
2022-11-05T22:17:16.961Z,6.75
2022-11-05T22:19:45.132Z,6.15
2022-11-05T22:22:13.530Z,6.22
2022-11-05T22:24:42.080Z,5.88
2022-11-05T22:27:18.041Z,4.85
2022-11-05T22:29:46.431Z,4.40
2022-11-05T22:32:14.653Z,4.13
2022-11-05T22:34:42.643Z,3.75
2022-11-05T22:37:13.014Z,3.28
2022-11-05T22:39:41.009Z,2.80
2022-11-05T22:42:09.078Z,3.03
2022-11-05T22:44:37.013Z,3.15
2022-11-05T22:47:05.592Z,2.42
2022-11-05T22:49:34.184Z,2.08
2022-11-05T22:52:02.309Z,2.40
2022-11-05T22:54:33.859Z,2.40
2022-11-05T22:57:04.246Z,2.05
2022-11-05T22:59:32.642Z,2.22
2022-11-05T23:02:05.138Z,2.45
2022-11-05T23:04:36.192Z,2.28
2022-11-05T23:07:27.343Z,1.73
2022-11-05T23:10:14.314Z,2.03
2022-11-05T23:12:44.527Z,1.55
2022-11-05T23:15:33.076Z,1.77
2022-11-05T23:18:19.253Z,1.70
2022-11-05T23:21:05.570Z,1.40
2022-11-05T23:23:51.609Z,2.05
2022-11-05T23:26:38.041Z,1.95
2022-11-05T23:29:05.767Z,1.77
2022-11-05T23:31:52.180Z,2.15
2022-11-05T23:34:19.874Z,2.63
2022-11-05T23:37:06.340Z,3.13
2022-11-05T23:39:41.262Z,2.88
2022-11-05T23:42:29.003Z,2.60
2022-11-05T23:45:15.524Z,3.25
2022-11-05T23:48:02.269Z,2.45
2022-11-05T23:50:34.399Z,2.65
2022-11-05T23:53:07.647Z,2.40
2022-11-05T23:55:35.216Z,2.58
2022-11-05T23:58:03.135Z,2.50
